Time;durP1;ratioP1;P1;durP2;ratioP2;P2;SDS_P1;SDS_P2;PMS_P1;PMS_P2;Temp;Humidity;BMP_temperature;BMP_pressure;BME280_temperature;BME280_humidity;BME280_pressure;Samples;Min_cycle;Max_cycle;Signal;HPM_P1;HPM_P2
2022/05/19 00:01:50;;;;;;;7.27;3.23;;;20.70;89.00;;;;;;5050586;28;20036;-81
2022/05/19 00:04:16;;;;;;;4.88;2.88;;;20.60;89.10;;;;;;5052146;28;20402;-79
2022/05/19 00:06:41;;;;;;;5.03;2.92;;;20.60;89.10;;;;;;5053997;28;20025;-82
2022/05/19 00:09:07;;;;;;;7.25;2.88;;;20.60;89.30;;;;;;5052613;28;20021;-82
2022/05/19 00:11:33;;;;;;;5.68;3.10;;;20.60;89.10;;;;;;5046401;28;20029;-80
2022/05/19 00:14:00;;;;;;;5.38;3.00;;;20.50;89.20;;;;;;5050994;28;20186;-80
2022/05/19 00:16:26;;;;;;;6.53;3.13;;;20.50;89.40;;;;;;5056576;28;20037;-78
2022/05/19 00:18:51;;;;;;;7.95;3.38;;;20.50;89.30;;;;;;5044130;28;20037;-80
2022/05/19 00:21:17;;;;;;;6.63;3.25;;;20.50;89.60;;;;;;5056513;28;20032;-80
2022/05/19 00:23:43;;;;;;;5.70;3.00;;;20.60;89.90;;;;;;5060402;28;20029;-80
2022/05/19 00:26:09;;;;;;;5.15;3.05;;;20.50;90.00;;;;;;5045460;28;20867;-79
2022/05/19 00:28:34;;;;;;;4.22;2.88;;;20.40;90.20;;;;;;5053173;28;20048;-81
2022/05/19 00:31:01;;;;;;;5.35;3.15;;;20.50;90.00;;;;;;5055085;28;20032;-81
2022/05/19 00:33:27;;;;;;;5.97;2.90;;;20.70;90.10;;;;;;5054483;28;20128;-78
2022/05/19 00:35:53;;;;;;;8.18;3.30;;;20.50;90.00;;;;;;5054450;28;20052;-80
2022/05/19 00:38:18;;;;;;;5.85;3.53;;;20.50;90.00;;;;;;5048599;28;20017;-79
2022/05/19 00:40:47;;;;;;;5.63;3.30;;;20.50;90.00;;;;;;5045376;28;20032;-77
2022/05/19 00:43:13;;;;;;;3.78;2.80;;;20.50;90.20;;;;;;5041157;28;20021;-80
2022/05/19 00:45:48;;;;;;;5.68;3.10;;;20.40;90.30;;;;;;5050990;28;20021;-80
2022/05/19 00:48:24;;;;;;;7.38;2.95;;;20.40;90.40;;;;;;5053375;28;20071;-81
2022/05/19 00:50:56;;;;;;;4.97;2.92;;;20.40;90.50;;;;;;5052198;28;20056;-80
2022/05/19 00:53:54;;;;;;;4.72;3.13;;;20.30;90.70;;;;;;5052954;28;21012;-79
2022/05/19 00:56:26;;;;;;;6.15;3.13;;;20.10;91.40;;;;;;5050851;28;20094;-82
2022/05/19 00:59:06;;;;;;;5.78;3.35;;;19.90;91.90;;;;;;5055456;28;20086;-80
2022/05/19 01:01:35;;;;;;;7.32;3.00;;;19.80;92.10;;;;;;5070137;28;20032;-79
2022/05/19 01:04:10;;;;;;;5.07;3.05;;;19.70;92.20;;;;;;5052654;28;20021;-80
2022/05/19 01:06:36;;;;;;;5.65;3.35;;;19.80;92.20;;;;;;5067326;28;20546;-79
2022/05/19 01:09:06;;;;;;;5.50;3.17;;;19.80;92.30;;;;;;5056862;28;20029;-79
2022/05/19 01:11:32;;;;;;;4.03;3.00;;;19.80;92.30;;;;;;5049277;28;20025;-83
2022/05/19 01:14:05;;;;;;;6.20;2.95;;;19.80;92.20;;;;;;5064452;28;20052;-78
2022/05/19 01:16:31;;;;;;;5.75;3.10;;;19.90;92.30;;;;;;5065092;28;20021;-77
2022/05/19 01:18:57;;;;;;;5.15;3.05;;;19.80;92.30;;;;;;5068335;28;20113;-78
2022/05/19 01:21:27;;;;;;;9.48;3.97;;;19.80;92.40;;;;;;5064974;28;20033;-77
2022/05/19 01:23:58;;;;;;;;;;;19.80;92.50;;;;;;5054779;28;20242;-79
2022/05/19 01:26:52;;;;;;;5.78;3.00;;;19.80;92.50;;;;;;5055487;28;19920;-81
2022/05/19 01:29:22;;;;;;;6.40;3.60;;;19.80;92.60;;;;;;5046468;28;20087;-80
2022/05/19 01:31:51;;;;;;;4.60;2.72;;;19.80;92.70;;;;;;5045435;28;20528;-79
2022/05/19 01:34:22;;;;;;;6.57;4.13;;;19.70;93.10;;;;;;5055939;28;20029;-79
2022/05/19 01:36:48;;;;;;;8.95;3.80;;;19.60;93.20;;;;;;5053895;28;20057;-80
2022/05/19 01:39:30;;;;;;;5.35;3.55;;;19.60;93.30;;;;;;5046782;28;20399;-80
2022/05/19 01:42:08;;;;;;;6.72;3.78;;;19.60;93.50;;;;;;5053323;28;20514;-81
2022/05/19 01:44:52;;;;;;;5.15;3.42;;;19.50;93.60;;;;;;5052272;28;20116;-80
2022/05/19 01:47:40;;;;;;;5.78;3.75;;;19.60;93.80;;;;;;5047406;28;20048;-80
2022/05/19 01:50:16;;;;;;;6.30;3.75;;;19.50;94.00;;;;;;5049663;28;20032;-79
2022/05/19 01:53:14;;;;;;;6.50;3.45;;;19.40;94.20;;;;;;5046760;28;20112;-79
2022/05/19 01:55:46;;;;;;;4.85;3.80;;;19.40;94.30;;;;;;5023715;28;20095;-80
2022/05/19 01:58:22;;;;;;;4.15;3.45;;;19.40;94.40;;;;;;5048677;28;20032;-79
2022/05/19 02:00:52;;;;;;;8.70;4.10;;;19.40;94.50;;;;;;5046889;28;20025;-80
2022/05/19 02:03:27;;;;;;;6.25;3.60;;;19.30;94.60;;;;;;5051939;28;20081;-80
2022/05/19 02:06:25;;;;;;;4.88;3.38;;;19.40;94.80;;;;;;5045846;28;20060;-79
2022/05/19 02:08:56;;;;;;;5.80;3.53;;;19.30;95.10;;;;;;5053824;28;20457;-82
2022/05/19 02:11:28;;;;;;;6.97;3.35;;;19.20;95.40;;;;;;5048190;28;20030;-80
2022/05/19 02:13:56;;;;;;;5.60;3.50;;;19.20;95.40;;;;;;5056485;28;20025;-80
2022/05/19 02:16:23;;;;;;;6.20;3.80;;;19.20;95.50;;;;;;5061945;28;20024;-82
2022/05/19 02:18:50;;;;;;;5.97;3.78;;;19.20;95.50;;;;;;5057599;28;20047;-80
2022/05/19 02:21:18;;;;;;;8.30;5.05;;;19.20;95.50;;;;;;5057119;28;20398;-79
2022/05/19 02:23:45;;;;;;;8.45;3.72;;;19.20;95.60;;;;;;5060580;28;20048;-80
2022/05/19 02:26:11;;;;;;;5.60;3.67;;;19.20;95.60;;;;;;5056094;28;20056;-81
2022/05/19 02:28:45;;;;;;;5.72;3.40;;;19.30;95.70;;;;;;5056908;28;20033;-80
2022/05/19 02:31:11;;;;;;;6.38;3.67;;;19.20;95.80;;;;;;5045772;28;20045;-81
2022/05/19 02:33:36;;;;;;;6.03;3.35;;;19.20;96.00;;;;;;5052310;28;20035;-81
2022/05/19 02:36:04;;;;;;;5.88;3.20;;;19.20;96.10;;;;;;5054298;28;20238;-79
2022/05/19 02:38:30;;;;;;;4.32;3.28;;;19.20;96.30;;;;;;5053842;28;20048;-81
2022/05/19 02:40:55;;;;;;;5.68;3.50;;;19.10;96.40;;;;;;5050113;28;20031;-79
2022/05/19 02:43:21;;;;;;;5.45;3.50;;;19.10;96.70;;;;;;5053647;28;20491;-81
2022/05/19 02:45:47;;;;;;;6.57;4.10;;;19.20;96.60;;;;;;5056581;28;20390;-78
2022/05/19 02:48:14;;;;;;;6.55;3.72;;;19.10;96.70;;;;;;5055722;28;20028;-81
2022/05/19 02:50:42;;;;;;;5.75;3.17;;;19.10;96.70;;;;;;5055527;28;20020;-80
2022/05/19 02:53:08;;;;;;;4.80;3.25;;;19.10;96.70;;;;;;5056731;28;20025;-80
2022/05/19 02:55:34;;;;;;;5.50;3.65;;;19.00;96.80;;;;;;5052169;28;20025;-80
2022/05/19 02:58:00;;;;;;;6.22;3.45;;;19.00;97.00;;;;;;5055283;28;20051;-80
2022/05/19 03:00:26;;;;;;;6.85;3.63;;;19.00;97.30;;;;;;5061590;28;20028;-82
2022/05/19 03:02:57;;;;;;;7.57;3.90;;;18.90;97.40;;;;;;5062567;28;20017;-82
2022/05/19 03:05:26;;;;;;;5.60;3.58;;;18.90;97.50;;;;;;5056717;28;20044;-79
2022/05/19 03:07:52;;;;;;;6.10;3.65;;;18.90;97.90;;;;;;5078936;28;20378;-80
2022/05/19 03:10:18;;;;;;;5.93;3.58;;;18.70;98.00;;;;;;5060543;28;20016;-81
2022/05/19 03:12:44;;;;;;;8.35;3.58;;;18.70;98.30;;;;;;5056194;28;20028;-79
2022/05/19 03:15:10;;;;;;;6.28;3.75;;;18.60;98.50;;;;;;5059353;28;20025;-80
2022/05/19 03:17:37;;;;;;;5.75;4.10;;;18.60;98.60;;;;;;5062542;28;20033;-82
2022/05/19 03:20:06;;;;;;;5.13;3.45;;;18.60;99.10;;;;;;5055963;28;20041;-80
2022/05/19 03:22:32;;;;;;;5.27;3.67;;;18.50;99.30;;;;;;5058311;28;20034;-81
2022/05/19 03:24:57;;;;;;;5.22;3.75;;;18.50;99.40;;;;;;5057308;28;20017;-80
2022/05/19 03:27:23;;;;;;;5.88;3.58;;;18.50;99.70;;;;;;5059219;28;20034;-78
2022/05/19 03:29:50;;;;;;;6.10;3.60;;;18.50;99.80;;;;;;5060964;28;20028;-81
2022/05/19 03:32:16;;;;;;;5.30;3.70;;;18.50;99.90;;;;;;5052329;28;20057;-80
2022/05/19 03:34:42;;;;;;;4.95;3.67;;;18.60;99.90;;;;;;5054729;28;20029;-81
2022/05/19 03:37:08;;;;;;;6.63;3.78;;;18.50;99.90;;;;;;5055103;28;20032;-81
2022/05/19 03:39:36;;;;;;;6.40;4.00;;;18.60;99.90;;;;;;5055248;28;20136;-80
2022/05/19 03:42:02;;;;;;;6.47;3.60;;;18.60;99.90;;;;;;5054887;28;20041;-80
2022/05/19 03:44:28;;;;;;;6.03;3.70;;;18.60;99.90;;;;;;5052379;28;20027;-80
2022/05/19 03:46:53;;;;;;;8.40;4.32;;;18.70;99.90;;;;;;5054562;28;20096;-80
2022/05/19 03:49:19;;;;;;;5.93;3.65;;;18.50;99.90;;;;;;5047409;28;20024;-81
2022/05/19 03:51:48;;;;;;;9.30;4.72;;;18.50;99.90;;;;;;5049434;28;20041;-81
2022/05/19 03:54:14;;;;;;;7.70;4.88;;;18.50;99.90;;;;;;5051417;28;20111;-80
2022/05/19 03:56:40;;;;;;;8.70;5.10;;;18.30;99.90;;;;;;5055612;28;20433;-80
2022/05/19 03:59:05;;;;;;;8.95;4.78;;;18.30;99.90;;;;;;5058218;28;20029;-80
2022/05/19 04:01:31;;;;;;;7.07;4.78;;;18.20;99.90;;;;;;5048619;28;20539;-82
2022/05/19 04:03:59;;;;;;;5.95;4.40;;;18.20;99.90;;;;;;5048761;28;21179;-80
2022/05/19 04:06:25;;;;;;;10.05;4.72;;;18.20;99.90;;;;;;5050062;28;20176;-80
2022/05/19 04:08:51;;;;;;;6.28;4.53;;;18.20;99.90;;;;;;5052311;28;20107;-80
2022/05/19 04:11:16;;;;;;;5.57;4.13;;;18.20;99.90;;;;;;5051375;28;20033;-80
2022/05/19 04:13:42;;;;;;;7.15;4.30;;;18.20;99.90;;;;;;5050131;28;20740;-79
2022/05/19 04:16:09;;;;;;;6.25;4.07;;;18.20;99.90;;;;;;5047792;28;20384;-80
2022/05/19 04:18:35;;;;;;;6.88;4.00;;;18.30;99.90;;;;;;5049233;28;20033;-81
2022/05/19 04:21:01;;;;;;;7.00;4.00;;;18.30;99.90;;;;;;5052266;28;20033;-80
2022/05/19 04:23:27;;;;;;;6.30;3.78;;;18.40;99.90;;;;;;5050490;28;20032;-81
2022/05/19 04:25:54;;;;;;;6.30;4.18;;;18.40;99.90;;;;;;5053712;28;20056;-78
2022/05/19 04:28:19;;;;;;;7.50;3.75;;;18.40;99.90;;;;;;5052130;28;22195;-79
2022/05/19 04:30:45;;;;;;;5.03;3.85;;;18.90;99.90;;;;;;5046599;28;20036;-81
2022/05/19 04:33:11;;;;;;;7.07;4.25;;;18.60;99.90;;;;;;5049266;28;20044;-80
2022/05/19 04:35:39;;;;;;;6.80;3.60;;;18.70;99.90;;;;;;5049984;28;20032;-79
2022/05/19 04:38:07;;;;;;;8.15;3.72;;;18.70;99.90;;;;;;5047263;28;20021;-78
2022/05/19 04:40:36;;;;;;;5.85;3.95;;;18.80;99.90;;;;;;5047745;28;20120;-79
2022/05/19 04:43:03;;;;;;;6.35;3.95;;;18.90;99.90;;;;;;5048525;28;20040;-80
2022/05/19 04:45:28;;;;;;;4.20;3.40;;;18.80;99.90;;;;;;5060746;28;20032;-80
2022/05/19 04:47:54;;;;;;;5.85;3.72;;;19.00;99.90;;;;;;5050631;28;20116;-81
2022/05/19 04:50:20;;;;;;;5.93;3.58;;;18.80;99.90;;;;;;5048342;28;20036;-82
2022/05/19 04:52:46;;;;;;;6.25;3.63;;;18.90;99.90;;;;;;5064681;28;20025;-82
2022/05/19 04:55:11;;;;;;;5.28;3.92;;;18.80;99.90;;;;;;5063877;28;20097;-79
2022/05/19 04:57:38;;;;;;;8.00;3.95;;;18.90;99.90;;;;;;5060011;28;20037;-80
2022/05/19 05:00:06;;;;;;;8.10;3.85;;;18.90;99.90;;;;;;5055630;28;20096;-80
2022/05/19 05:02:32;;;;;;;7.07;4.22;;;19.00;99.90;;;;;;5064030;28;20028;-80
2022/05/19 05:04:59;;;;;;;12.95;5.68;;;19.10;99.90;;;;;;5062874;28;20025;-81
2022/05/19 05:07:24;;;;;;;8.80;5.15;;;19.10;99.90;;;;;;5062722;28;20123;-78
2022/05/19 05:09:50;;;;;;;8.60;4.78;;;19.20;99.90;;;;;;5061002;28;20114;-80
2022/05/19 05:12:16;;;;;;;7.78;5.10;;;19.20;99.90;;;;;;5062985;28;20029;-80
2022/05/19 05:14:41;;;;;;;8.07;4.45;;;19.20;99.90;;;;;;5057038;28;20029;-79
2022/05/19 05:17:07;;;;;;;7.30;4.60;;;19.30;99.90;;;;;;5056959;28;20029;-83
2022/05/19 05:19:33;;;;;;;7.53;5.28;;;19.10;99.90;;;;;;5058418;28;20994;-86
2022/05/19 05:21:59;;;;;;;9.88;4.90;;;19.20;99.90;;;;;;5061545;28;20058;-85
2022/05/19 05:24:25;;;;;;;8.27;4.57;;;19.30;99.90;;;;;;5039964;28;20037;-85
2022/05/19 05:26:51;;;;;;;9.63;5.10;;;19.60;99.90;;;;;;5052734;28;20037;-84
2022/05/19 05:29:17;;;;;;;6.30;4.60;;;19.70;99.90;;;;;;5053961;28;20120;-83
2022/05/19 05:31:42;;;;;;;6.60;4.78;;;20.00;99.90;;;;;;5055009;28;20502;-82
2022/05/19 05:34:08;;;;;;;9.52;4.78;;;20.50;99.70;;;;;;5051037;28;20033;-84
2022/05/19 05:36:34;;;;;;;20.05;6.70;;;20.40;99.10;;;;;;5056136;28;20025;-84
2022/05/19 05:38:59;;;;;;;39.92;6.78;;;20.50;99.20;;;;;;5052532;28;20029;-85
2022/05/19 05:41:25;;;;;;;18.83;6.00;;;20.40;99.40;;;;;;5060329;28;20033;-83
2022/05/19 05:43:51;;;;;;;12.27;4.82;;;20.50;99.60;;;;;;5053771;28;20084;-83
2022/05/19 05:46:17;;;;;;;7.47;4.40;;;20.70;99.10;;;;;;5052267;28;20093;-82
2022/05/19 05:48:45;;;;;;;11.63;4.95;;;20.70;98.50;;;;;;5052168;28;20031;-84
2022/05/19 05:51:12;;;;;;;8.32;4.18;;;20.80;98.50;;;;;;5052548;28;20033;-83
2022/05/19 05:53:39;;;;;;;8.40;4.28;;;21.00;98.00;;;;;;5052293;28;20025;-83
2022/05/19 05:56:06;;;;;;;8.10;4.40;;;20.80;98.20;;;;;;5052644;28;20626;-82
2022/05/19 05:58:33;;;;;;;7.93;4.22;;;21.50;98.00;;;;;;5051977;28;20456;-83
2022/05/19 06:00:58;;;;;;;6.65;4.30;;;22.00;97.10;;;;;;5050685;28;20033;-83
2022/05/19 06:03:25;;;;;;;8.95;4.30;;;22.10;96.20;;;;;;5048871;28;20033;-82
2022/05/19 06:05:50;;;;;;;7.45;4.00;;;22.20;96.00;;;;;;5052977;28;20045;-83
2022/05/19 06:08:16;;;;;;;9.30;4.32;;;22.10;96.20;;;;;;5049233;28;20022;-83
2022/05/19 06:10:42;;;;;;;6.95;4.28;;;22.20;96.00;;;;;;5051916;28;20025;-82
2022/05/19 06:13:08;;;;;;;6.70;3.72;;;22.30;95.70;;;;;;5051743;28;20111;-80
2022/05/19 06:15:34;;;;;;;9.27;4.20;;;22.40;95.40;;;;;;5044069;28;20495;-80
2022/05/19 06:18:00;;;;;;;5.15;3.72;;;22.20;96.00;;;;;;5046964;28;20053;-81
2022/05/19 06:20:26;;;;;;;5.15;3.50;;;22.30;95.90;;;;;;5049796;28;20033;-80
2022/05/19 06:22:52;;;;;;;5.50;4.00;;;22.10;95.70;;;;;;5041073;28;20487;-83
2022/05/19 06:25:20;;;;;;;9.25;3.90;;;21.90;96.10;;;;;;5017687;28;20024;-81
2022/05/19 06:27:48;;;;;;;7.45;3.80;;;21.90;96.00;;;;;;5046486;28;20036;-81
2022/05/19 06:30:14;;;;;;;6.60;3.67;;;21.70;96.60;;;;;;5052693;28;20514;-79
2022/05/19 06:32:41;;;;;;;11.40;3.90;;;21.90;96.60;;;;;;5052247;28;20033;-80
2022/05/19 06:35:12;;;;;;;5.75;3.70;;;22.00;96.40;;;;;;5051393;28;20029;-82
2022/05/19 06:37:38;;;;;;;7.85;3.90;;;22.00;96.30;;;;;;5044446;28;22184;-81
2022/05/19 06:40:06;;;;;;;8.70;4.05;;;22.20;96.00;;;;;;5053109;28;20048;-79
2022/05/19 06:42:32;;;;;;;8.52;4.40;;;22.20;96.00;;;;;;5056296;28;20097;-80
2022/05/19 06:44:59;;;;;;;15.77;5.15;;;22.30;95.90;;;;;;5049312;28;20033;-78
2022/05/19 06:47:24;;;;;;;10.15;3.80;;;22.40;95.90;;;;;;5052137;28;20431;-80
2022/05/19 06:49:52;;;;;;;9.73;3.85;;;22.50;95.90;;;;;;5052338;28;20025;-79
2022/05/19 06:52:21;;;;;;;6.72;3.53;;;22.40;96.00;;;;;;5063928;28;20028;-80
2022/05/19 06:54:48;;;;;;;8.90;3.90;;;22.40;95.60;;;;;;5053008;28;20028;-82
2022/05/19 06:57:15;;;;;;;8.70;3.58;;;22.40;95.50;;;;;;5044718;28;20045;-81
2022/05/19 06:59:41;;;;;;;6.35;3.63;;;22.50;95.50;;;;;;5043876;28;20029;-84
2022/05/19 07:02:11;;;;;;;7.25;3.78;;;22.70;95.20;;;;;;5041163;28;20154;-80
2022/05/19 07:04:37;;;;;;;;;;;22.60;95.30;;;;;;5046332;28;20505;-82
2022/05/19 07:07:06;;;;;;;8.35;3.78;;;22.60;95.30;;;;;;5044717;28;19909;-83
2022/05/19 07:09:34;;;;;;;14.05;4.18;;;22.90;95.20;;;;;;5047233;28;20024;-80
2022/05/19 07:12:00;;;;;;;7.13;3.90;;;23.00;95.10;;;;;;5043862;28;20033;-81
2022/05/19 07:14:29;;;;;;;8.98;3.78;;;22.90;95.20;;;;;;5042684;28;20036;-82
2022/05/19 07:16:55;;;;;;;6.57;3.47;;;23.00;94.90;;;;;;5044497;28;20106;-83
2022/05/19 07:22:06;;;;;;;5.20;2.92;;;23.10;94.40;;;;;;5053736;28;20036;-83
2022/05/19 07:24:32;;;;;;;10.07;3.28;;;23.30;94.60;;;;;;5061710;28;20032;-83
2022/05/19 07:26:58;;;;;;;6.18;2.85;;;23.30;94.40;;;;;;5049501;28;20021;-80
2022/05/19 07:29:25;;;;;;;5.93;3.10;;;23.40;93.50;;;;;;5048019;28;20025;-79
2022/05/19 07:31:52;;;;;;;7.70;3.55;;;23.40;93.40;;;;;;5048118;28;20029;-82
2022/05/19 07:34:21;;;;;;;5.78;3.20;;;23.50;93.60;;;;;;5054493;28;20017;-79
2022/05/19 07:36:47;;;;;;;8.13;3.08;;;23.70;93.40;;;;;;5047910;28;20076;-79
2022/05/19 07:39:13;;;;;;;7.30;3.28;;;23.80;93.20;;;;;;5054155;28;20056;-79
2022/05/19 07:41:39;;;;;;;11.80;3.38;;;23.60;93.30;;;;;;5054268;28;20433;-81
2022/05/19 07:44:21;;;;;;;7.85;3.10;;;23.60;93.30;;;;;;5046710;28;20048;-84
2022/05/19 07:46:49;;;;;;;4.55;3.15;;;23.70;93.20;;;;;;5054844;28;20029;-80
2022/05/19 07:49:16;;;;;;;11.00;3.60;;;23.90;93.20;;;;;;5054687;28;20051;-81
2022/05/19 07:51:44;;;;;;;12.80;4.07;;;24.10;93.00;;;;;;5056424;28;20025;-81
2022/05/19 07:54:15;;;;;;;7.57;3.30;;;24.10;93.10;;;;;;5055583;28;20120;-82
2022/05/19 07:56:43;;;;;;;6.78;3.47;;;24.40;93.00;;;;;;5050448;28;20048;-82
2022/05/19 07:59:09;;;;;;;6.78;3.00;;;24.30;92.60;;;;;;5054195;28;20049;-82
2022/05/19 08:01:36;;;;;;;7.85;3.25;;;24.60;92.80;;;;;;5045288;28;20025;-79
2022/05/19 08:04:01;;;;;;;6.50;3.22;;;24.70;92.80;;;;;;5053327;28;20033;-80
2022/05/19 08:06:30;;;;;;;6.32;2.92;;;24.90;92.80;;;;;;5056676;28;20029;-82
2022/05/19 08:08:58;;;;;;;4.60;3.30;;;25.10;92.50;;;;;;5056606;28;20082;-81
2022/05/19 08:11:24;;;;;;;7.55;3.38;;;25.10;92.30;;;;;;5051408;28;20033;-83
2022/05/19 08:16:35;;;;;;;4.70;3.00;;;25.40;92.20;;;;;;5051076;28;20171;-84
2022/05/19 08:19:01;;;;;;;4.70;2.90;;;25.70;91.80;;;;;;5053680;28;20152;-82
2022/05/19 08:21:27;;;;;;;5.38;3.03;;;25.60;91.80;;;;;;5049803;28;20038;-80
2022/05/19 08:23:53;;;;;;;5.45;3.30;;;25.50;91.90;;;;;;5053279;28;20029;-83
2022/05/19 08:26:19;;;;;;;6.95;3.17;;;25.70;91.90;;;;;;5053752;28;20029;-82
2022/05/19 08:28:46;;;;;;;5.03;2.90;;;25.80;91.80;;;;;;5054765;28;20025;-84
2022/05/19 08:31:14;;;;;;;9.23;2.90;;;26.00;91.50;;;;;;5048088;28;20025;-83
2022/05/19 08:33:42;;;;;;;6.57;3.35;;;26.10;91.40;;;;;;5054405;28;20021;-80
2022/05/19 08:36:09;;;;;;;9.68;3.53;;;26.20;91.30;;;;;;5057460;28;20028;-84
2022/05/19 08:38:36;;;;;;;6.35;4.13;;;26.10;91.10;;;;;;5055907;28;20033;-84
2022/05/19 08:41:06;;;;;;;6.53;3.28;;;26.10;91.30;;;;;;5055778;28;20036;-82
2022/05/19 08:43:57;;;;;;;4.78;3.10;;;26.30;91.10;;;;;;5054128;28;20022;-83
2022/05/19 08:46:30;;;;;;;5.57;2.90;;;26.50;90.50;;;;;;5054322;28;20032;-83
2022/05/19 08:49:01;;;;;;;4.70;3.10;;;26.50;90.70;;;;;;5057321;28;20435;-82
2022/05/19 08:51:33;;;;;;;5.43;2.60;;;26.40;90.40;;;;;;5056184;28;20025;-80
2022/05/19 08:54:05;;;;;;;6.60;3.13;;;26.30;90.30;;;;;;5053781;28;20060;-82
2022/05/19 08:56:56;;;;;;;10.00;4.10;;;26.30;90.50;;;;;;5055618;28;20056;-82
2022/05/19 08:59:28;;;;;;;7.70;2.95;;;26.70;90.30;;;;;;5052478;28;20037;-82
2022/05/19 09:02:02;;;;;;;3.97;2.70;;;27.00;89.50;;;;;;5052158;28;20029;-83
2022/05/19 09:04:49;;;;;;;4.97;2.70;;;27.30;88.70;;;;;;5057639;28;20029;-83
2022/05/19 09:10:29;;;;;;;7.65;3.60;;;27.30;87.30;;;;;;5060156;28;20059;-85
2022/05/19 09:13:17;;;;;;;5.68;3.03;;;27.40;87.90;;;;;;5060897;28;20029;-83
2022/05/19 09:15:47;;;;;;;9.25;3.58;;;27.60;87.40;;;;;;5057210;28;20029;-82
2022/05/19 09:18:14;;;;;;;;;;;27.70;86.30;;;;;;5053877;28;20033;-83
2022/05/19 09:20:54;;;;;;;4.82;2.70;;;27.70;86.30;;;;;;5059596;28;19908;-86
2022/05/19 09:23:22;;;;;;;7.93;3.00;;;27.20;87.00;;;;;;5059473;28;20032;-85
2022/05/19 09:25:57;;;;;;;8.30;3.08;;;27.00;89.10;;;;;;5073402;28;20104;-90
2022/05/19 09:28:23;;;;;;;7.38;3.25;;;26.80;90.00;;;;;;5069318;28;20026;-86
2022/05/19 09:30:58;;;;;;;6.88;2.83;;;26.50;90.40;;;;;;5069121;28;20028;-86
2022/05/19 09:33:34;;;;;;;10.65;3.38;;;26.50;90.10;;;;;;5064726;28;20047;-83
2022/05/19 09:36:05;;;;;;;5.43;3.42;;;26.30;90.90;;;;;;5060709;28;20021;-84
2022/05/19 09:38:36;;;;;;;7.50;3.47;;;26.30;91.40;;;;;;5059843;28;20037;-82
2022/05/19 09:41:06;;;;;;;9.93;3.17;;;26.30;90.80;;;;;;5052230;28;20028;-84
2022/05/19 09:43:36;;;;;;;8.13;3.28;;;26.10;90.80;;;;;;5055693;28;20029;-83
2022/05/19 09:46:09;;;;;;;6.05;2.78;;;26.10;90.90;;;;;;5054051;28;20037;-85
2022/05/19 09:48:44;;;;;;;8.18;3.45;;;26.00;90.70;;;;;;5059440;28;20035;-83
2022/05/19 09:51:14;;;;;;;6.63;3.33;;;25.90;91.30;;;;;;5048238;28;20426;-82
2022/05/19 09:53:41;;;;;;;;;;;26.00;90.80;;;;;;5079366;22;20045;-82
2022/05/19 09:56:13;;;;;;;6.40;2.40;;;26.10;90.60;;;;;;5043576;28;19901;-86
2022/05/19 09:58:44;;;;;;;4.97;2.67;;;26.30;90.20;;;;;;5053078;28;20491;-87
2022/05/19 10:01:28;;;;;;;5.90;2.85;;;26.40;90.20;;;;;;5054302;28;20010;-85
2022/05/19 10:03:59;;;;;;;5.00;2.80;;;26.40;90.30;;;;;;5055977;28;20037;-85
2022/05/19 10:06:36;;;;;;;8.20;2.90;;;26.60;90.10;;;;;;5050795;28;20022;-82
2022/05/19 10:09:19;;;;;;;4.93;2.80;;;26.70;90.00;;;;;;5030605;28;20020;-85
2022/05/19 10:12:08;;;;;;;5.05;2.80;;;26.90;89.40;;;;;;5032775;28;20043;-84
2022/05/19 10:14:35;;;;;;;5.53;2.90;;;26.90;88.90;;;;;;5029449;28;20045;-81
2022/05/19 10:17:42;;;;;;;5.95;3.22;;;26.90;89.10;;;;;;5033572;28;20014;-84
2022/05/19 10:20:11;;;;;;;6.82;3.45;;;26.90;89.50;;;;;;5032070;28;20014;-84
2022/05/19 10:22:53;;;;;;;7.22;3.55;;;26.90;89.10;;;;;;5032675;28;20042;-84
2022/05/19 10:25:25;;;;;;;7.22;3.33;;;26.90;88.60;;;;;;5032406;28;20038;-83
2022/05/19 10:31:22;;;;;;;5.72;3.28;;;27.00;88.80;;;;;;5025343;28;20057;-82
2022/05/19 10:33:53;;;;;;;5.85;3.22;;;26.90;89.50;;;;;;5019974;28;20057;-82
2022/05/19 10:36:42;;;;;;;6.40;3.60;;;26.80;90.10;;;;;;5022838;28;20100;-80
2022/05/19 10:39:17;;;;;;;8.05;3.67;;;27.10;89.80;;;;;;5032626;28;20030;-82
2022/05/19 10:41:50;;;;;;;10.18;4.97;;;27.30;89.40;;;;;;5014325;28;20030;-82
2022/05/19 10:44:37;;;;;;;7.47;3.78;;;27.60;88.80;;;;;;5016559;28;20435;-81
2022/05/19 10:47:24;;;;;;;6.00;3.90;;;27.80;88.70;;;;;;5019887;28;20048;-85
2022/05/19 10:50:15;;;;;;;7.43;3.90;;;27.90;88.00;;;;;;5033296;28;20033;-84
2022/05/19 10:53:10;;;;;;;8.15;3.33;;;27.90;88.60;;;;;;5019332;28;20045;-83
2022/05/19 10:56:10;;;;;;;7.50;3.20;;;27.90;88.70;;;;;;5011501;28;20129;-84
2022/05/19 10:58:54;;;;;;;6.07;3.00;;;27.80;88.60;;;;;;5019971;28;20030;-86
2022/05/19 11:01:52;;;;;;;6.65;3.63;;;28.10;88.10;;;;;;5015701;28;20025;-85
2022/05/19 11:04:45;;;;;;;9.43;3.85;;;28.30;87.40;;;;;;5019923;28;20025;-85
2022/05/19 11:07:33;;;;;;;9.45;3.67;;;28.30;87.60;;;;;;5026634;28;20022;-84
2022/05/19 11:10:18;;;;;;;9.43;3.60;;;28.50;87.70;;;;;;5024410;28;20040;-81
2022/05/19 11:13:11;;;;;;;8.93;3.70;;;28.50;87.10;;;;;;5011261;28;20045;-82
2022/05/19 11:16:12;;;;;;;9.35;3.33;;;28.70;86.80;;;;;;5015620;28;20049;-84
2022/05/19 11:18:55;;;;;;;9.82;3.55;;;28.80;86.60;;;;;;5015220;28;20042;-82
2022/05/19 11:21:34;;;;;;;8.00;3.53;;;28.50;87.00;;;;;;5029429;28;20056;-84
2022/05/19 11:24:05;;;;;;;;;;;28.40;87.10;;;;;;5018737;28;20086;-86
2022/05/19 11:26:42;;;;;;;8.25;3.42;;;28.60;87.00;;;;;;5024351;28;19909;-85
2022/05/19 11:29:44;;;;;;;10.43;3.95;;;28.90;86.20;;;;;;5029408;28;20137;-85
2022/05/19 11:32:22;;;;;;;8.93;3.80;;;29.10;85.70;;;;;;5042977;28;20029;-84
2022/05/19 11:35:09;;;;;;;7.05;3.53;;;29.20;85.50;;;;;;5043800;28;20034;-85
2022/05/19 11:38:17;;;;;;;7.78;3.40;;;29.20;85.60;;;;;;5027238;28;20041;-81
2022/05/19 11:40:53;;;;;;;7.97;4.18;;;29.10;85.60;;;;;;5023404;28;20035;-82
2022/05/19 11:43:25;;;;;;;8.25;3.92;;;29.30;85.40;;;;;;5027139;28;20034;-83
2022/05/19 11:46:16;;;;;;;9.40;3.45;;;29.50;84.90;;;;;;5027893;28;20036;-82
2022/05/19 11:55:13;;;;;;;9.50;3.90;;;30.10;83.00;;;;;;5020018;28;20047;-81
2022/05/19 11:57:47;;;;;;;;;;;30.20;83.70;;;;;;5017807;28;20030;-81
2022/05/19 12:00:21;;;;;;;6.38;3.70;;;30.20;82.80;;;;;;5018621;28;19910;-83
2022/05/19 12:02:49;;;;;;;6.28;3.67;;;30.20;82.30;;;;;;5029790;28;22024;-81
2022/05/19 12:05:31;;;;;;;10.27;3.78;;;30.10;82.50;;;;;;5027427;28;20090;-82
2022/05/19 12:08:06;;;;;;;4.80;3.10;;;30.00;82.90;;;;;;5033034;28;20022;-81
2022/05/19 12:10:36;;;;;;;7.45;3.42;;;29.90;82.90;;;;;;5016485;28;20436;-80
2022/05/19 12:13:04;;;;;;;6.57;3.65;;;29.90;82.70;;;;;;5020220;28;20121;-82
2022/05/19 12:15:50;;;;;;;5.05;3.42;;;29.80;83.40;;;;;;5013965;28;20022;-82
2022/05/19 12:18:24;;;;;;;8.48;3.92;;;29.80;83.30;;;;;;5024841;28;20030;-82
2022/05/19 12:20:53;;;;;;;6.10;3.53;;;29.90;83.20;;;;;;5020363;28;20161;-80
2022/05/19 12:23:26;;;;;;;7.10;3.90;;;30.00;82.80;;;;;;5023858;28;20026;-81
2022/05/19 12:26:05;;;;;;;7.13;3.78;;;30.00;82.90;;;;;;5020855;28;20292;-80
2022/05/19 12:28:31;;;;;;;;;;;30.20;82.80;;;;;;5020834;28;20037;-81
2022/05/19 12:33:57;;;;;;;8.98;4.03;;;30.10;82.30;;;;;;5030262;28;20045;-80
2022/05/19 12:36:34;;;;;;;8.85;3.35;;;30.00;82.40;;;;;;5029242;28;20026;-82
2022/05/19 12:39:23;;;;;;;9.85;3.78;;;29.80;83.10;;;;;;5025137;28;20018;-82
2022/05/19 12:41:49;;;;;;;8.05;3.92;;;29.80;83.60;;;;;;5024291;28;20034;-82
2022/05/19 12:44:28;;;;;;;8.45;3.67;;;29.90;83.20;;;;;;5018154;28;20036;-82
2022/05/19 12:47:03;;;;;;;9.13;3.67;;;30.00;82.90;;;;;;5018801;28;20108;-79
2022/05/19 12:49:31;;;;;;;6.45;3.55;;;30.00;82.50;;;;;;5020663;28;20053;-81
2022/05/19 12:51:59;;;;;;;8.15;3.63;;;30.10;82.30;;;;;;5020861;28;20041;-79
2022/05/19 12:54:28;;;;;;;7.03;3.67;;;30.20;82.90;;;;;;5016565;28;20037;-82
2022/05/19 12:57:01;;;;;;;6.83;4.07;;;30.30;82.30;;;;;;5018853;28;20033;-80
2022/05/19 12:59:57;;;;;;;9.32;3.95;;;30.50;81.90;;;;;;5015551;28;20034;-84
2022/05/19 13:02:39;;;;;;;9.60;3.90;;;30.70;81.70;;;;;;5049872;28;20018;-82
2022/05/19 13:05:28;;;;;;;7.32;3.35;;;30.70;81.10;;;;;;5043109;28;20630;-83
2022/05/19 13:08:29;;;;;;;6.57;4.13;;;30.50;81.20;;;;;;5024585;28;20029;-81
2022/05/19 13:10:56;;;;;;;10.40;3.83;;;30.30;82.00;;;;;;5017736;28;20037;-81
2022/05/19 13:13:46;;;;;;;11.02;3.97;;;30.50;81.90;;;;;;5019628;28;20030;-83
2022/05/19 13:16:17;;;;;;;9.43;3.65;;;30.50;81.50;;;;;;5020622;28;20156;-82
2022/05/19 13:18:49;;;;;;;11.48;3.97;;;30.70;81.70;;;;;;5017859;28;21442;-82
2022/05/19 13:21:37;;;;;;;9.65;4.55;;;30.60;81.30;;;;;;5017236;28;20030;-89
2022/05/19 13:24:09;;;;;;;7.32;3.38;;;30.50;81.10;;;;;;5019318;28;20050;-84
2022/05/19 13:26:40;;;;;;;6.43;3.63;;;30.60;81.40;;;;;;5023963;28;20041;-83
2022/05/19 13:32:11;;;;;;;6.47;3.53;;;30.80;80.20;;;;;;5028537;28;20056;-83
2022/05/19 13:34:48;;;;;;;6.25;3.55;;;31.00;80.10;;;;;;5036863;28;20030;-87